Terr Demajagua, Puerto Rico
Current Conditions -  °F | °C
As of 4:53 AM on Wednesday 22 Oct 2014 (Local Time) from TJNR Reporting Station
Broken Clouds Broken Clouds  
Wind Chill: 76°   Ceiling: 3300
Heat Index: 76°   Visibility: 10mi
Dew Point: 73°   Wind: 0mph
Humidity: 91%   Direction: NA
Pressure: 29.96"   Gusts: NA
Location:  18.3304°N, 65.6573°W
Report Text: TJNR 220853Z AUTO 00000KT 10SM SCT026 BKN033 24/23 A2996 RMK AO2 SLP144 T02440228 56002
Loading
Personal Weather Stations






























Interactive Weather Map
Tropical Storm Tracking
New forecast layout! Learn more

10-Day Weather Forecast

Advertisements
Track Severe Weather on mobile